Time;durP1;ratioP1;P1;durP2;ratioP2;P2;SDS_P1;SDS_P2;PMS_P1;PMS_P2;Temp;Humidity;BMP_temperature;BMP_pressure;BME280_temperature;BME280_humidity;BME280_pressure;Samples;Min_cycle;Max_cycle;Signal;HPM_P1;HPM_P2
2021/12/16 00:07:19;;;;;;;7.38;3.20;;;20.50;57.50;;;;;;4977847;28;20130;-61
2021/12/16 00:31:51;;;;;;;8.80;3.70;;;20.50;57.20;;;;;;4977340;28;20053;-60
2021/12/16 00:34:19;;;;;;;8.77;3.58;;;20.50;57.10;;;;;;4977279;28;20051;-61
2021/12/16 00:36:45;;;;;;;8.70;3.50;;;20.50;57.10;;;;;;4976184;28;20035;-60
2021/12/16 00:39:25;;;;;;;11.30;3.80;;;20.50;57.00;;;;;;4977098;28;20053;-60
2021/12/16 00:42:01;;;;;;;15.82;3.97;;;20.50;57.00;;;;;;4977644;28;20062;-60
2021/12/16 00:49:48;;;;;;;9.90;3.20;;;20.50;56.90;;;;;;4976888;28;20054;-60
2021/12/16 00:55:19;;;;;;;7.18;3.63;;;20.50;56.80;;;;;;4976868;28;20053;-60
2021/12/16 00:57:46;;;;;;;8.40;3.83;;;20.40;56.70;;;;;;4976791;28;20402;-60
2021/12/16 01:00:15;;;;;;;8.50;3.85;;;20.40;56.70;;;;;;4975714;28;20042;-60
2021/12/16 01:40:23;;;;;;;7.43;3.38;;;20.40;56.30;;;;;;4976241;28;20053;-60
2021/12/16 01:50:23;;;;;;;7.95;4.18;;;20.30;56.20;;;;;;4975629;28;20057;-60
2021/12/16 01:53:17;;;;;;;5.38;3.28;;;20.30;56.10;;;;;;4976688;28;20038;-60
2021/12/16 01:55:54;;;;;;;5.15;3.38;;;20.30;56.10;;;;;;4976331;28;20052;-60
2021/12/16 01:58:22;;;;;;;4.07;3.03;;;20.30;56.10;;;;;;4975664;28;20043;-60
2021/12/16 02:01:14;;;;;;;5.85;3.70;;;20.30;56.10;;;;;;4976191;28;20049;-60
2021/12/16 02:03:47;;;;;;;5.88;3.40;;;20.30;56.00;;;;;;4976074;28;20047;-60
2021/12/16 02:08:52;;;;;;;5.43;3.47;;;20.30;56.00;;;;;;4975615;28;20057;-60
2021/12/16 02:28:10;;;;;;;3.50;3.08;;;20.20;55.80;;;;;;4975577;28;20059;-60
2021/12/16 02:33:52;;;;;;;4.65;3.15;;;20.20;55.70;;;;;;4975126;28;20058;-60
2021/12/16 02:36:25;;;;;;;5.47;3.60;;;20.20;55.70;;;;;;4975233;28;20047;-60
2021/12/16 02:39:15;;;;;;;5.43;3.38;;;20.20;55.70;;;;;;4975009;28;20046;-60
2021/12/16 02:41:44;;;;;;;5.65;3.60;;;20.20;55.70;;;;;;4975719;28;20332;-60
2021/12/16 02:44:24;;;;;;;5.00;3.28;;;20.20;55.70;;;;;;4975388;28;20134;-60
2021/12/16 02:49:39;;;;;;;4.63;3.53;;;20.20;55.60;;;;;;4974549;28;20505;-60
2021/12/16 02:52:07;;;;;;;5.65;3.80;;;20.20;55.70;;;;;;4974828;28;20054;-60
2021/12/16 02:54:33;;;;;;;5.50;3.75;;;20.20;55.60;;;;;;4974835;28;20042;-60
2021/12/16 02:56:59;;;;;;;5.68;4.03;;;20.20;55.60;;;;;;4974702;28;20562;-60
2021/12/16 02:59:28;;;;;;;4.70;3.88;;;20.20;55.50;;;;;;4974809;28;20037;-60
2021/12/16 03:01:59;;;;;;;5.32;3.85;;;20.20;55.50;;;;;;4974213;28;20587;-60
2021/12/16 03:04:27;;;;;;;5.68;3.88;;;20.20;55.50;;;;;;4989729;28;20034;-60
2021/12/16 03:06:56;;;;;;;5.20;3.42;;;20.20;55.50;;;;;;4973914;28;20048;-60
2021/12/16 03:13:10;;;;;;;5.88;3.65;;;20.20;55.50;;;;;;4989636;28;20142;-60
2021/12/16 03:15:39;;;;;;;4.30;3.70;;;20.20;55.50;;;;;;4971140;28;20102;-60
2021/12/16 03:18:23;;;;;;;4.45;3.78;;;20.20;55.50;;;;;;4975201;28;20085;-60
2021/12/16 03:20:55;;;;;;;4.55;3.65;;;20.20;55.50;;;;;;4974636;28;20051;-60
2021/12/16 03:23:36;;;;;;;5.82;3.70;;;20.10;55.50;;;;;;4975032;28;20054;-60
2021/12/16 03:36:49;;;;;;;5.27;3.87;;;20.10;55.40;;;;;;4978673;28;20047;-60
2021/12/16 03:39:15;;;;;;;7.60;4.05;;;20.10;55.40;;;;;;4978062;28;20270;-59
2021/12/16 03:41:41;;;;;;;5.18;3.92;;;20.10;55.40;;;;;;4978637;28;20074;-60
2021/12/16 03:44:11;;;;;;;5.47;3.80;;;20.10;55.30;;;;;;4978135;28;20058;-60
2021/12/16 03:46:43;;;;;;;4.40;4.00;;;20.10;55.30;;;;;;4978150;28;20054;-60
2021/12/16 03:49:14;;;;;;;5.38;3.95;;;20.10;55.30;;;;;;4978520;28;20097;-60
2021/12/16 03:51:42;;;;;;;4.38;3.97;;;20.10;55.30;;;;;;4978423;28;20045;-60
2021/12/16 03:54:13;;;;;;;4.88;3.75;;;20.10;55.30;;;;;;4977964;28;20038;-60
2021/12/16 03:56:40;;;;;;;4.85;4.03;;;20.10;55.30;;;;;;4978452;28;20051;-60
2021/12/16 03:59:09;;;;;;;5.20;4.05;;;20.10;55.30;;;;;;4977906;28;20047;-60
2021/12/16 04:01:35;;;;;;;4.03;3.63;;;20.10;55.20;;;;;;4977093;28;20050;-60
2021/12/16 04:04:01;;;;;;;6.22;4.00;;;20.00;55.20;;;;;;4978324;28;20035;-60
2021/12/16 04:06:30;;;;;;;3.83;3.40;;;20.10;55.20;;;;;;4977746;28;20086;-60
2021/12/16 04:08:57;;;;;;;4.00;3.70;;;20.10;55.20;;;;;;4977620;28;20137;-60
2021/12/16 04:11:27;;;;;;;5.05;4.10;;;20.00;55.10;;;;;;4977716;28;20050;-60
2021/12/16 04:13:59;;;;;;;3.92;3.53;;;20.00;55.10;;;;;;4977733;28;20462;-60
2021/12/16 04:16:39;;;;;;;4.30;3.90;;;20.00;55.20;;;;;;4978461;28;20466;-60
2021/12/16 04:19:11;;;;;;;5.35;4.10;;;20.00;55.10;;;;;;4978137;28;20047;-61
2021/12/16 04:21:40;;;;;;;5.30;3.90;;;20.00;55.10;;;;;;4976892;28;20061;-60
2021/12/16 04:24:06;;;;;;;5.35;4.00;;;20.00;55.10;;;;;;4976383;28;20034;-61
2021/12/16 04:26:35;;;;;;;4.25;3.72;;;20.00;55.10;;;;;;4976169;28;20035;-60
2021/12/16 04:29:04;;;;;;;4.38;3.70;;;20.00;55.10;;;;;;4976149;28;20038;-60
2021/12/16 04:31:30;;;;;;;4.35;3.90;;;20.00;55.20;;;;;;4976167;28;20097;-60
2021/12/16 04:33:55;;;;;;;4.63;3.70;;;20.00;55.80;;;;;;4976205;28;20042;-61
2021/12/16 04:36:21;;;;;;;5.07;3.78;;;20.00;55.10;;;;;;4975924;28;20439;-60
2021/12/16 04:38:48;;;;;;;4.70;3.60;;;20.00;55.10;;;;;;4976123;28;20046;-60
2021/12/16 04:41:16;;;;;;;6.25;3.80;;;20.00;55.10;;;;;;4976051;28;20039;-60
2021/12/16 04:43:51;;;;;;;5.80;3.90;;;20.00;55.10;;;;;;4975916;28;20390;-60
2021/12/16 04:46:20;;;;;;;4.10;3.70;;;20.00;55.10;;;;;;4975951;28;20042;-60
2021/12/16 04:48:50;;;;;;;4.68;4.10;;;20.00;55.10;;;;;;4975817;28;20035;-60
2021/12/16 04:51:17;;;;;;;4.93;3.42;;;20.00;55.10;;;;;;4975885;28;20057;-60
2021/12/16 04:53:43;;;;;;;4.13;3.38;;;20.00;55.20;;;;;;4976336;28;20118;-60
2021/12/16 04:56:11;;;;;;;5.90;3.50;;;20.00;55.10;;;;;;4975835;28;20046;-60
2021/12/16 04:58:38;;;;;;;3.75;3.38;;;20.00;55.10;;;;;;4975850;28;20069;-60
2021/12/16 05:01:04;;;;;;;4.28;3.88;;;20.00;55.10;;;;;;4976266;28;20462;-60
2021/12/16 05:03:31;;;;;;;5.65;3.95;;;20.00;55.10;;;;;;4975711;28;20054;-60
2021/12/16 05:05:57;;;;;;;4.53;3.97;;;20.00;55.10;;;;;;4975696;28;20050;-60
2021/12/16 05:08:23;;;;;;;3.90;3.50;;;20.00;55.10;;;;;;4975484;28;20043;-60
2021/12/16 05:10:52;;;;;;;3.60;3.25;;;20.00;55.10;;;;;;4975628;28;20059;-60
2021/12/16 05:13:22;;;;;;;4.03;3.60;;;20.00;55.10;;;;;;4974510;28;20130;-60
2021/12/16 05:15:47;;;;;;;3.92;3.53;;;20.00;55.10;;;;;;4976083;28;20042;-60
2021/12/16 05:18:20;;;;;;;4.75;3.53;;;19.90;55.00;;;;;;4975126;28;20131;-60
2021/12/16 05:20:46;;;;;;;4.82;4.10;;;19.90;55.00;;;;;;4940494;28;1029378;-60
2021/12/16 05:26:15;;;;;;;3.92;3.63;;;19.90;55.10;;;;;;4976285;28;20050;-60
2021/12/16 05:28:50;;;;;;;3.80;3.42;;;19.90;55.00;;;;;;4976273;28;20035;-60
2021/12/16 05:31:16;;;;;;;4.10;3.70;;;19.90;55.00;;;;;;4976272;28;20085;-60
2021/12/16 05:33:42;;;;;;;3.60;3.30;;;19.90;55.00;;;;;;4976274;28;20043;-60
2021/12/16 05:36:08;;;;;;;4.28;3.60;;;19.90;55.10;;;;;;4974996;28;20047;-60
2021/12/16 05:38:35;;;;;;;3.33;2.90;;;19.90;55.10;;;;;;4976569;28;20039;-60
2021/12/16 05:41:03;;;;;;;5.68;3.70;;;19.90;55.00;;;;;;4975813;28;20074;-60
2021/12/16 05:43:30;;;;;;;5.13;3.13;;;19.90;55.10;;;;;;4974940;28;20050;-61
2021/12/16 05:45:57;;;;;;;4.82;4.03;;;19.90;55.10;;;;;;4975698;28;20090;-59
2021/12/16 05:48:25;;;;;;;5.35;3.60;;;19.90;55.10;;;;;;4974636;28;20045;-60
2021/12/16 05:50:57;;;;;;;5.25;3.65;;;19.90;55.10;;;;;;4975783;28;20561;-60
2021/12/16 05:53:23;;;;;;;3.67;3.28;;;19.90;55.10;;;;;;4975845;28;20039;-60
2021/12/16 05:55:50;;;;;;;5.22;3.50;;;19.90;55.20;;;;;;4959409;28;20046;-59
2021/12/16 05:58:19;;;;;;;3.75;3.33;;;19.90;55.20;;;;;;4975655;28;20130;-61
2021/12/16 06:00:48;;;;;;;4.15;3.33;;;19.90;55.20;;;;;;4975597;28;20078;-60
2021/12/16 06:03:15;;;;;;;3.08;2.72;;;19.90;55.20;;;;;;4976163;28;20042;-60
2021/12/16 06:05:41;;;;;;;4.93;3.50;;;19.90;55.20;;;;;;4976030;28;20069;-60
2021/12/16 06:08:08;;;;;;;4.97;3.45;;;19.90;55.20;;;;;;4974442;28;20134;-60
2021/12/16 06:13:18;;;;;;;3.95;3.00;;;19.90;55.20;;;;;;4975535;28;20054;-60
2021/12/16 06:16:01;;;;;;;4.75;3.78;;;19.90;55.30;;;;;;4975420;28;20039;-60
2021/12/16 06:29:07;;;;;;;3.67;3.05;;;20.00;55.40;;;;;;4973998;28;20405;-60
2021/12/16 06:31:33;;;;;;;4.30;2.85;;;20.00;55.30;;;;;;4973936;28;20437;-60
2021/12/16 06:33:59;;;;;;;5.32;3.22;;;19.90;55.30;;;;;;4975490;28;20046;-60
2021/12/16 06:36:25;;;;;;;10.43;3.17;;;20.00;55.40;;;;;;4974806;28;20055;-60
2021/12/16 06:38:51;;;;;;;4.78;3.30;;;20.00;55.50;;;;;;4974696;28;20034;-60
2021/12/16 06:41:18;;;;;;;4.78;3.00;;;20.00;55.50;;;;;;4974673;28;20088;-60
2021/12/16 06:43:45;;;;;;;3.55;2.95;;;20.00;55.60;;;;;;4989964;28;20098;-60
2021/12/16 06:46:15;;;;;;;5.75;2.92;;;20.10;55.80;;;;;;4974601;28;20073;-60
2021/12/16 06:48:43;;;;;;;5.38;2.85;;;20.10;56.00;;;;;;4974756;28;20045;-60
2021/12/16 06:51:16;;;;;;;6.40;3.10;;;20.10;56.00;;;;;;4974726;28;20122;-60
2021/12/16 06:56:27;;;;;;;4.60;2.90;;;20.10;56.00;;;;;;4974739;28;20046;-60
2021/12/16 06:59:06;;;;;;;3.45;3.00;;;20.10;56.00;;;;;;4975522;28;20042;-61
2021/12/16 07:01:39;;;;;;;3.22;2.85;;;20.20;56.10;;;;;;4974701;28;20170;-60
2021/12/16 07:04:12;;;;;;;4.75;2.80;;;20.20;56.10;;;;;;4975261;28;20063;-60
2021/12/16 07:06:39;;;;;;;4.47;2.80;;;20.20;56.10;;;;;;4974665;28;20042;-61
2021/12/16 07:09:13;;;;;;;8.18;3.28;;;20.20;56.00;;;;;;4975126;28;20128;-61
2021/12/16 07:11:42;;;;;;;4.60;2.92;;;20.20;56.20;;;;;;4974666;28;20356;-61
2021/12/16 07:14:14;;;;;;;4.90;3.30;;;20.20;56.40;;;;;;4974629;28;20057;-61
2021/12/16 07:16:41;;;;;;;5.50;2.60;;;20.20;56.40;;;;;;4974658;28;20458;-61
2021/12/16 07:19:07;;;;;;;8.88;3.53;;;20.20;56.40;;;;;;4975013;28;20058;-62
2021/12/16 07:21:37;;;;;;;8.60;3.17;;;20.30;56.50;;;;;;4972999;28;20050;-62
2021/12/16 07:24:08;;;;;;;4.00;2.40;;;20.30;56.60;;;;;;4974324;28;20362;-61
2021/12/16 07:26:34;;;;;;;;;;;20.30;56.70;;;;;;4975370;28;20066;-61
2021/12/16 07:29:00;;;;;;;6.03;2.95;;;20.40;56.80;;;;;;4974464;28;19918;-62
2021/12/16 07:31:28;;;;;;;7.10;3.20;;;20.30;56.60;;;;;;4973237;28;20089;-61
2021/12/16 07:33:54;;;;;;;4.63;3.10;;;20.30;56.60;;;;;;4989495;28;20053;-62
2021/12/16 07:36:19;;;;;;;6.38;3.17;;;20.40;56.50;;;;;;4973871;28;20362;-62
2021/12/16 07:38:46;;;;;;;6.78;3.17;;;20.40;56.40;;;;;;4974353;28;20058;-61
2021/12/16 07:41:13;;;;;;;9.07;3.30;;;20.40;56.40;;;;;;4974402;28;20046;-61
2021/12/16 07:46:08;;;;;;;7.07;3.13;;;20.40;56.50;;;;;;4974335;28;20050;-62
2021/12/16 07:48:34;;;;;;;6.68;3.60;;;20.40;56.50;;;;;;4973471;28;20082;-62
2021/12/16 07:51:04;;;;;;;12.43;4.05;;;20.40;56.50;;;;;;4972878;28;20129;-62
2021/12/16 07:53:31;;;;;;;7.90;3.72;;;20.40;56.60;;;;;;4974276;28;20147;-62
2021/12/16 07:55:57;;;;;;;14.88;3.58;;;20.40;56.60;;;;;;4971526;28;20046;-61
2021/12/16 07:58:23;;;;;;;7.55;3.53;;;20.50;56.60;;;;;;4974217;28;20041;-62
2021/12/16 08:00:50;;;;;;;7.47;3.40;;;20.50;56.60;;;;;;4969403;28;20430;-62
2021/12/16 08:03:16;;;;;;;5.18;3.22;;;20.50;56.50;;;;;;4988600;28;20126;-63
2021/12/16 08:05:53;;;;;;;10.00;3.60;;;20.50;56.50;;;;;;4985981;28;20066;-63
2021/12/16 08:08:19;;;;;;;8.32;3.33;;;20.50;56.50;;;;;;4978450;28;20038;-62
2021/12/16 08:10:45;;;;;;;10.43;4.10;;;20.50;56.50;;;;;;4994010;28;20081;-61
2021/12/16 08:13:11;;;;;;;19.40;4.72;;;20.50;56.60;;;;;;4993420;28;20069;-62
2021/12/16 08:15:37;;;;;;;9.60;3.58;;;20.50;56.50;;;;;;4989646;28;20406;-61
2021/12/16 08:18:03;;;;;;;10.48;4.10;;;20.50;56.50;;;;;;4975556;28;20129;-58
2021/12/16 08:20:29;;;;;;;15.38;3.95;;;20.50;56.40;;;;;;4976182;28;20089;-61
2021/12/16 08:22:57;;;;;;;10.02;4.30;;;20.50;56.40;;;;;;4978058;28;20046;-62
2021/12/16 08:25:25;;;;;;;9.30;3.90;;;20.50;56.30;;;;;;4986027;28;20042;-61
2021/12/16 08:27:52;;;;;;;7.70;3.75;;;20.50;56.30;;;;;;4994395;28;20116;-62
2021/12/16 08:30:20;;;;;;;9.50;4.13;;;20.50;56.10;;;;;;4978330;28;20035;-62
2021/12/16 08:32:46;;;;;;;12.48;6.15;;;20.50;56.00;;;;;;4977271;28;20133;-61
2021/12/16 08:35:12;;;;;;;9.45;5.20;;;20.50;55.40;;;;;;4977192;28;20082;-62
2021/12/16 08:37:39;;;;;;;10.80;5.68;;;20.50;55.40;;;;;;4977239;28;20063;-62
2021/12/16 08:40:08;;;;;;;8.48;4.80;;;20.50;55.40;;;;;;4977206;28;20113;-61
2021/12/16 08:42:34;;;;;;;12.25;5.05;;;20.50;55.30;;;;;;4977080;28;20051;-62
2021/12/16 08:44:59;;;;;;;10.27;4.85;;;20.50;55.20;;;;;;4976888;28;20049;-62
2021/12/16 08:47:25;;;;;;;8.48;4.43;;;20.50;55.10;;;;;;4976774;28;20520;-62
2021/12/16 08:49:51;;;;;;;9.73;4.45;;;20.50;55.10;;;;;;4976919;28;20066;-61
2021/12/16 08:52:20;;;;;;;7.30;4.53;;;20.50;55.10;;;;;;4977018;28;20378;-62
2021/12/16 08:54:47;;;;;;;8.45;4.57;;;20.50;55.00;;;;;;4976502;28;20423;-62
2021/12/16 08:57:13;;;;;;;8.80;4.00;;;20.50;55.00;;;;;;4975596;28;20046;-61
2021/12/16 08:59:39;;;;;;;7.70;3.92;;;20.50;54.90;;;;;;4977267;28;20039;-61
2021/12/16 09:02:07;;;;;;;7.28;3.88;;;20.50;54.80;;;;;;4976744;28;20044;-61
2021/12/16 09:04:33;;;;;;;6.15;3.88;;;20.50;54.80;;;;;;4976610;28;20042;-61
2021/12/16 09:07:02;;;;;;;5.40;3.67;;;20.50;54.80;;;;;;4976750;28;20043;-62
2021/12/16 09:09:34;;;;;;;7.65;3.65;;;20.50;54.80;;;;;;4989537;28;20042;-62
2021/12/16 09:12:11;;;;;;;9.32;3.47;;;20.50;54.90;;;;;;4996466;28;20049;-62
2021/12/16 09:14:39;;;;;;;5.90;3.45;;;20.50;55.00;;;;;;4996478;28;20133;-62
2021/12/16 09:17:09;;;;;;;5.18;3.60;;;20.60;55.20;;;;;;4995820;28;20133;-62
2021/12/16 09:19:40;;;;;;;7.72;3.65;;;20.60;55.30;;;;;;4996611;28;20034;-61
2021/12/16 09:22:07;;;;;;;7.18;3.47;;;20.60;55.40;;;;;;4996321;28;20134;-61
2021/12/16 09:24:33;;;;;;;7.45;3.85;;;20.60;55.50;;;;;;4994641;28;20133;-58
2021/12/16 09:26:59;;;;;;;11.63;3.65;;;20.60;55.50;;;;;;4995341;28;20038;-62
2021/12/16 09:29:25;;;;;;;8.45;3.75;;;20.60;55.50;;;;;;4995629;28;20092;-61
2021/12/16 09:31:51;;;;;;;7.45;3.10;;;20.60;55.50;;;;;;4995359;28;20097;-61
2021/12/16 09:34:16;;;;;;;9.52;3.65;;;20.60;55.50;;;;;;4996200;28;20169;-61
2021/12/16 09:36:43;;;;;;;6.10;3.33;;;20.60;55.50;;;;;;4996068;28;20125;-61
2021/12/16 09:39:13;;;;;;;8.55;3.60;;;20.60;55.50;;;;;;4995608;28;20053;-61
2021/12/16 09:41:41;;;;;;;9.40;3.65;;;20.60;55.60;;;;;;4995122;28;20649;-61
2021/12/16 09:44:08;;;;;;;9.45;3.17;;;20.60;55.60;;;;;;4995397;28;20073;-61
2021/12/16 09:46:34;;;;;;;8.65;2.85;;;20.60;55.70;;;;;;4995120;28;20485;-61
2021/12/16 09:49:00;;;;;;;12.18;3.10;;;20.60;55.80;;;;;;4995286;28;20034;-61
2021/12/16 09:51:29;;;;;;;6.78;3.10;;;20.60;56.50;;;;;;4995347;28;20038;-61
2021/12/16 09:53:59;;;;;;;9.60;3.40;;;20.60;56.60;;;;;;4995255;28;20042;-61
2021/12/16 09:56:27;;;;;;;9.93;2.97;;;20.60;55.90;;;;;;4995324;28;20042;-61
2021/12/16 09:58:55;;;;;;;6.85;3.30;;;20.60;56.00;;;;;;4991250;28;20042;-61
2021/12/16 10:01:23;;;;;;;6.53;2.70;;;20.60;56.00;;;;;;4977650;28;20052;-61
2021/12/16 10:03:51;;;;;;;6.85;2.95;;;20.60;56.00;;;;;;4995135;28;20056;-61
2021/12/16 10:06:17;;;;;;;7.43;2.88;;;20.60;56.10;;;;;;4994742;28;20493;-61
2021/12/16 10:08:43;;;;;;;7.28;3.40;;;20.60;56.00;;;;;;4995712;28;20521;-61
2021/12/16 10:11:09;;;;;;;6.07;2.70;;;20.70;56.10;;;;;;4994916;28;20085;-61
2021/12/16 10:13:46;;;;;;;6.53;2.78;;;20.60;56.00;;;;;;4992320;28;20096;-61
2021/12/16 10:18:38;;;;;;;6.63;2.75;;;20.70;56.00;;;;;;4995513;28;20052;-61
2021/12/16 10:21:07;;;;;;;6.30;2.70;;;20.70;56.00;;;;;;4994530;28;20117;-61
2021/12/16 10:23:38;;;;;;;6.97;2.88;;;20.70;56.00;;;;;;4994759;28;20061;-61
2021/12/16 10:26:06;;;;;;;4.05;2.80;;;20.70;56.00;;;;;;4993455;28;20474;-61
2021/12/16 10:28:39;;;;;;;8.25;3.00;;;20.70;55.90;;;;;;4994677;28;20044;-61
2021/12/16 10:31:16;;;;;;;5.13;2.50;;;20.70;55.80;;;;;;4995212;28;20042;-61
2021/12/16 10:33:45;;;;;;;7.22;2.60;;;20.70;55.80;;;;;;4976448;28;20049;-61
2021/12/16 10:36:17;;;;;;;5.75;2.83;;;20.70;55.80;;;;;;4974708;28;20082;-61
2021/12/16 10:38:55;;;;;;;7.03;2.72;;;20.70;55.70;;;;;;4975033;28;20034;-61
2021/12/16 10:41:31;;;;;;;10.68;3.15;;;20.70;56.30;;;;;;4974988;28;20457;-61
2021/12/16 10:44:06;;;;;;;6.40;2.58;;;20.70;55.60;;;;;;4975478;28;20058;-61
2021/12/16 10:46:37;;;;;;;5.85;2.60;;;20.70;55.60;;;;;;4974984;28;20399;-61
2021/12/16 10:49:10;;;;;;;4.03;2.30;;;20.70;55.70;;;;;;4973452;28;20125;-61
2021/12/16 10:51:40;;;;;;;6.80;2.58;;;20.70;55.70;;;;;;4974958;28;20047;-61
2021/12/16 10:54:12;;;;;;;7.20;2.30;;;20.70;55.70;;;;;;4975431;28;20053;-61
2021/12/16 10:56:55;;;;;;;3.42;2.30;;;20.70;55.70;;;;;;4974409;28;20486;-61
2021/12/16 10:59:44;;;;;;;3.70;2.25;;;20.70;55.70;;;;;;4975373;28;20511;-61
2021/12/16 11:02:30;;;;;;;3.65;2.13;;;20.70;55.70;;;;;;4973714;28;20086;-61
2021/12/16 11:05:16;;;;;;;3.88;2.47;;;20.70;55.70;;;;;;4957681;28;20089;-61
2021/12/16 11:07:51;;;;;;;5.88;2.20;;;20.70;55.70;;;;;;4974705;28;20046;-61
2021/12/16 11:10:20;;;;;;;5.25;2.53;;;20.70;55.70;;;;;;4974536;28;20137;-62
2021/12/16 11:12:54;;;;;;;6.35;2.67;;;20.70;55.60;;;;;;4973625;28;20054;-61
2021/12/16 11:15:42;;;;;;;5.20;2.65;;;20.70;55.50;;;;;;4975242;28;20043;-61
2021/12/16 11:18:23;;;;;;;5.18;2.40;;;20.70;55.40;;;;;;4974457;28;20039;-62
2021/12/16 11:20:58;;;;;;;5.00;2.53;;;20.70;55.40;;;;;;4974699;28;20078;-62
2021/12/16 11:23:29;;;;;;;4.63;2.40;;;20.70;55.40;;;;;;4974578;28;20055;-61
2021/12/16 11:26:02;;;;;;;5.63;2.78;;;20.70;55.40;;;;;;4974173;28;20046;-66
2021/12/16 11:28:31;;;;;;;4.22;2.50;;;20.70;55.40;;;;;;4974487;28;20134;-61
2021/12/16 11:31:11;;;;;;;6.07;2.35;;;20.70;55.40;;;;;;4973226;28;20046;-67
2021/12/16 11:33:44;;;;;;;4.68;2.75;;;20.70;55.30;;;;;;4974988;28;20141;-61
2021/12/16 11:36:32;;;;;;;5.55;2.17;;;20.70;55.40;;;;;;4974648;28;20051;-60
2021/12/16 11:39:07;;;;;;;6.70;2.33;;;20.70;55.30;;;;;;4974763;28;20061;-61
2021/12/16 11:41:40;;;;;;;5.00;2.60;;;20.70;55.40;;;;;;4974197;28;20425;-61
2021/12/16 11:44:33;;;;;;;7.07;2.90;;;20.70;55.30;;;;;;4974382;28;20043;-61
2021/12/16 11:47:09;;;;;;;7.78;2.78;;;20.70;55.40;;;;;;4976299;28;20078;-61
2021/12/16 11:49:39;;;;;;;4.05;2.90;;;20.70;55.50;;;;;;4977682;28;20113;-61
2021/12/16 11:52:25;;;;;;;4.43;2.38;;;20.70;55.50;;;;;;4980358;28;20041;-61
2021/12/16 11:54:55;;;;;;;4.75;2.80;;;20.70;55.50;;;;;;4994336;28;20080;-61
2021/12/16 11:57:24;;;;;;;;;;;20.70;55.50;;;;;;4994949;28;20049;-62
2021/12/16 11:59:54;;;;;;;4.85;2.70;;;20.70;55.60;;;;;;4984084;28;19918;-62
2021/12/16 12:02:33;;;;;;;4.90;2.42;;;20.70;55.70;;;;;;4989611;28;21863;-61
2021/12/16 12:05:26;;;;;;;3.80;2.30;;;20.70;55.80;;;;;;4991500;28;20034;-61
2021/12/16 12:08:05;;;;;;;9.68;2.47;;;20.70;55.80;;;;;;4989187;28;20042;-62
2021/12/16 12:10:42;;;;;;;7.40;2.60;;;20.70;55.80;;;;;;4991923;28;20478;-61
2021/12/16 12:13:29;;;;;;;7.75;3.08;;;20.70;56.00;;;;;;4997120;28;20101;-61
2021/12/16 12:16:13;;;;;;;11.82;2.83;;;20.70;55.90;;;;;;4994505;28;20061;-61
2021/12/16 12:18:43;;;;;;;11.23;3.17;;;20.70;55.90;;;;;;4975189;28;20033;-61
2021/12/16 12:21:39;;;;;;;10.18;2.90;;;20.70;55.90;;;;;;4989018;28;20457;-62
2021/12/16 12:24:25;;;;;;;6.53;2.70;;;20.70;55.70;;;;;;4984073;28;20038;-62
2021/12/16 12:26:57;;;;;;;6.20;2.28;;;20.60;55.60;;;;;;4992569;28;20048;-62
2021/12/16 12:29:28;;;;;;;9.27;3.03;;;20.70;55.60;;;;;;4996832;28;20053;-62
2021/12/16 12:32:05;;;;;;;7.60;3.10;;;20.60;55.50;;;;;;4996211;28;20038;-61
2021/12/16 12:34:33;;;;;;;4.75;2.38;;;20.70;55.50;;;;;;4996889;28;20050;-61
2021/12/16 12:37:02;;;;;;;9.45;2.67;;;20.70;55.50;;;;;;4996783;28;20042;-62
2021/12/16 12:39:42;;;;;;;6.20;2.80;;;20.60;55.40;;;;;;4996653;28;20485;-61
2021/12/16 12:42:09;;;;;;;4.82;2.83;;;20.60;55.30;;;;;;4996723;28;20081;-62
2021/12/16 12:44:34;;;;;;;4.90;2.97;;;20.60;55.30;;;;;;4996341;28;20129;-62
2021/12/16 12:47:03;;;;;;;4.72;2.80;;;20.60;55.20;;;;;;4996587;28;20078;-62
2021/12/16 12:49:29;;;;;;;4.65;2.60;;;20.60;55.10;;;;;;4996409;28;20480;-62
2021/12/16 12:52:04;;;;;;;4.88;2.83;;;20.60;55.10;;;;;;4996523;28;20042;-62
2021/12/16 12:54:31;;;;;;;5.22;2.85;;;20.60;55.00;;;;;;4996940;28;20042;-62
2021/12/16 12:57:01;;;;;;;3.67;2.55;;;20.60;55.00;;;;;;4994857;28;20397;-62
2021/12/16 12:59:38;;;;;;;4.32;2.38;;;20.60;55.00;;;;;;4996210;28;20140;-62
2021/12/16 13:02:16;;;;;;;4.65;2.78;;;20.60;54.90;;;;;;4996309;28;20409;-62
2021/12/16 13:04:56;;;;;;;4.65;2.97;;;20.60;54.90;;;;;;4996752;28;20050;-61
2021/12/16 13:07:35;;;;;;;6.63;3.08;;;20.60;54.90;;;;;;4996783;28;20377;-62
2021/12/16 13:10:12;;;;;;;4.20;2.85;;;20.60;54.90;;;;;;4996058;28;20038;-62
2021/12/16 13:12:46;;;;;;;3.53;2.80;;;20.60;54.90;;;;;;4996630;28;20035;-62
2021/12/16 13:15:27;;;;;;;4.07;2.60;;;20.60;54.80;;;;;;4996168;28;20089;-62
2021/12/16 13:23:44;;;;;;;4.47;2.78;;;20.60;54.60;;;;;;4995933;28;20046;-61
2021/12/16 13:29:02;;;;;;;3.13;2.80;;;20.50;54.50;;;;;;4996538;28;20382;-62
2021/12/16 13:32:07;;;;;;;4.43;2.78;;;20.60;54.50;;;;;;4996297;28;20461;-62
2021/12/16 13:34:33;;;;;;;4.32;2.80;;;20.50;54.50;;;;;;4995601;28;20050;-61
2021/12/16 13:37:08;;;;;;;4.00;3.15;;;20.50;54.40;;;;;;4996210;28;20122;-62
2021/12/16 13:39:42;;;;;;;3.05;2.78;;;20.60;54.40;;;;;;4994593;28;20420;-62
2021/12/16 13:42:15;;;;;;;3.20;2.85;;;20.50;54.30;;;;;;4995967;28;20483;-61
2021/12/16 13:45:05;;;;;;;4.80;3.00;;;20.50;54.30;;;;;;4995510;28;20030;-61
2021/12/16 13:47:45;;;;;;;2.80;2.60;;;20.50;54.40;;;;;;4995713;28;20042;-62
2021/12/16 14:10:08;;;;;;;8.23;2.70;;;20.50;54.60;;;;;;4989927;28;20046;-62
2021/12/16 14:23:39;;;;;;;4.10;3.00;;;20.50;54.70;;;;;;4994781;28;20050;-61
2021/12/16 14:26:39;;;;;;;8.40;3.40;;;20.50;54.90;;;;;;4988214;28;20042;-61
2021/12/16 14:40:34;;;;;;;6.95;3.13;;;20.60;55.50;;;;;;4953403;29;20097;-62
2021/12/16 14:43:15;;;;;;;11.52;3.40;;;20.50;55.60;;;;;;4992597;28;20061;-61
2021/12/16 14:45:46;;;;;;;8.68;3.15;;;20.60;55.60;;;;;;4994585;28;20088;-62
2021/12/16 14:48:24;;;;;;;8.30;3.38;;;20.50;55.60;;;;;;4994444;28;20042;-62
2021/12/16 14:51:00;;;;;;;10.93;3.35;;;20.50;55.70;;;;;;4993397;28;20041;-62
2021/12/16 14:53:38;;;;;;;12.60;3.40;;;20.60;55.90;;;;;;4993936;28;20457;-62
2021/12/16 14:56:07;;;;;;;10.15;3.25;;;20.60;56.10;;;;;;4993073;28;20042;-62
2021/12/16 14:58:33;;;;;;;16.40;3.55;;;20.60;56.20;;;;;;4994250;28;20042;-62
2021/12/16 15:01:19;;;;;;;10.48;3.30;;;20.60;56.40;;;;;;4994233;28;20121;-62
2021/12/16 15:03:46;;;;;;;6.82;3.63;;;20.60;56.60;;;;;;4994937;28;20038;-61
2021/12/16 15:06:22;;;;;;;11.23;3.13;;;20.60;56.60;;;;;;4994131;28;20034;-62
2021/12/16 15:08:58;;;;;;;11.60;3.80;;;20.60;56.70;;;;;;4993886;28;20516;-61
2021/12/16 15:11:37;;;;;;;13.55;3.40;;;20.60;56.70;;;;;;4994096;28;20461;-62
2021/12/16 15:14:16;;;;;;;9.52;3.38;;;20.60;56.90;;;;;;4993086;28;20100;-62
2021/12/16 15:44:10;;;;;;;16.90;3.90;;;20.60;56.70;;;;;;4998332;28;20080;-62
2021/12/16 15:46:36;;;;;;;14.23;4.30;;;20.60;56.70;;;;;;4997896;28;20042;-62
2021/12/16 15:49:03;;;;;;;13.20;4.50;;;20.60;56.80;;;;;;4997040;28;20361;-62
2021/12/16 15:51:29;;;;;;;13.55;4.90;;;20.60;56.90;;;;;;4997849;28;20042;-62
2021/12/16 15:53:59;;;;;;;16.58;5.25;;;20.60;57.00;;;;;;4996239;28;20100;-62
2021/12/16 15:56:33;;;;;;;18.13;5.47;;;20.60;57.20;;;;;;4998312;28;20073;-62
2021/12/16 15:59:00;;;;;;;13.15;5.22;;;20.60;57.40;;;;;;4997940;28;20648;-62
2021/12/16 16:01:30;;;;;;;14.77;5.55;;;20.60;57.50;;;;;;4997309;28;20081;-62
2021/12/16 16:03:58;;;;;;;15.18;5.78;;;20.70;57.80;;;;;;4995834;28;20390;-62
2021/12/16 16:06:24;;;;;;;20.95;6.20;;;20.70;58.00;;;;;;4997210;28;20129;-62
2021/12/16 16:09:00;;;;;;;13.02;6.10;;;20.70;58.00;;;;;;4997119;28;20082;-62
2021/12/16 16:11:31;;;;;;;19.10;6.45;;;20.70;58.10;;;;;;4997368;28;20050;-62
2021/12/16 16:14:02;;;;;;;21.92;7.93;;;20.70;58.10;;;;;;4997640;28;20053;-62
2021/12/16 16:16:39;;;;;;;19.42;6.82;;;20.70;58.20;;;;;;4997944;28;20042;-62
2021/12/16 16:19:05;;;;;;;19.33;6.72;;;20.70;58.40;;;;;;4997610;28;20085;-62
2021/12/16 16:21:31;;;;;;;18.70;6.68;;;20.80;58.70;;;;;;4997335;28;20062;-60
2021/12/16 16:24:12;;;;;;;26.73;7.53;;;20.80;58.80;;;;;;4995897;28;20133;-60
2021/12/16 16:26:43;;;;;;;17.08;7.28;;;20.80;58.90;;;;;;4996775;28;20433;-60
2021/12/16 16:29:12;;;;;;;13.98;6.47;;;20.80;59.10;;;;;;4996754;28;20042;-60
2021/12/16 16:31:38;;;;;;;15.00;6.72;;;20.80;59.20;;;;;;4996691;28;20122;-60
2021/12/16 16:34:18;;;;;;;13.73;7.13;;;20.80;59.80;;;;;;4996022;28;20073;-60
2021/12/16 16:36:48;;;;;;;23.92;6.55;;;20.80;59.10;;;;;;4997322;28;20069;-60
2021/12/16 16:39:18;;;;;;;21.27;7.63;;;20.80;59.20;;;;;;4997065;28;20042;-60
2021/12/16 16:41:47;;;;;;;21.95;7.95;;;20.70;59.30;;;;;;4996501;28;20108;-60
2021/12/16 16:44:15;;;;;;;26.50;8.82;;;20.80;59.50;;;;;;4996866;28;20046;-60
2021/12/16 16:47:14;;;;;;;23.17;7.28;;;20.80;59.60;;;;;;4996410;28;20039;-60
2021/12/16 16:49:49;;;;;;;26.17;7.55;;;20.80;59.80;;;;;;4996537;28;20053;-60